Time;durP1;ratioP1;P1;durP2;ratioP2;P2;SDS_P1;SDS_P2;PMS_P1;PMS_P2;Temp;Humidity;BMP_temperature;BMP_pressure;BME280_temperature;BME280_humidity;BME280_pressure;Samples;Min_cycle;Max_cycle;Signal;HPM_P1;HPM_P2
2023/02/24 00:01:51;;;;;;;1.40;1.30;;;;;;;11.99;47.40;99676.97;4477527;31;33635;-83
2023/02/24 00:04:19;;;;;;;5.07;2.15;;;;;;;11.85;47.75;99676.81;4472111;31;33058;-83
2023/02/24 00:06:48;;;;;;;3.35;1.77;;;;;;;11.87;48.52;99685.53;4477454;31;32625;-84
2023/02/24 00:09:18;;;;;;;2.35;2.05;;;;;;;11.82;48.28;99684.91;4462765;31;32512;-83
2023/02/24 00:11:47;;;;;;;3.55;2.83;;;;;;;11.83;48.36;99686.63;4482132;31;34467;-84
2023/02/24 00:14:15;;;;;;;0.60;0.60;;;;;;;11.90;48.41;99682.72;4485632;31;32871;-83
2023/02/24 00:16:43;;;;;;;1.75;1.65;;;;;;;11.83;49.49;99680.47;4485649;31;34091;-84
2023/02/24 00:19:16;;;;;;;5.18;2.78;;;;;;;11.77;49.48;99682.47;4477752;31;33602;-83
2023/02/24 00:21:45;;;;;;;3.22;2.85;;;;;;;11.67;49.58;99675.06;4471381;31;34269;-84
2023/02/24 00:24:13;;;;;;;1.30;1.15;;;;;;;11.75;49.29;99667.59;4470919;31;33352;-84
2023/02/24 00:26:41;;;;;;;1.90;1.58;;;;;;;11.74;49.22;99672.03;4475257;31;32057;-84
2023/02/24 00:29:11;;;;;;;3.35;2.25;;;;;;;11.75;49.47;99662.31;4484510;31;34579;-83
2023/02/24 00:31:41;;;;;;;1.55;0.98;;;;;;;11.51;50.08;99654.66;4476918;31;32908;-84
2023/02/24 00:34:11;;;;;;;1.87;1.77;;;;;;;11.59;50.28;99656.09;4468894;31;32607;-84
2023/02/24 00:36:39;;;;;;;3.92;2.05;;;;;;;11.56;50.06;99661.53;4477100;31;33047;-84
2023/02/24 00:39:08;;;;;;;1.62;1.20;;;;;;;11.45;50.21;99643.56;4483313;31;33621;-83
2023/02/24 00:41:42;;;;;;;1.58;1.40;;;;;;;11.09;51.73;99646.19;4474446;31;33278;-83
2023/02/24 00:44:12;;;;;;;1.50;1.23;;;;;;;11.38;50.68;99637.69;4479552;31;32742;-83
2023/02/24 00:46:43;;;;;;;1.77;1.67;;;;;;;11.41;51.04;99637.56;4468302;31;33398;-84
2023/02/24 00:49:15;;;;;;;1.05;0.93;;;;;;;11.43;50.88;99635.69;4483628;31;34234;-83
2023/02/24 00:51:45;;;;;;;;;;;;;;;11.39;51.58;99639.41;4465730;31;35252;-83
2023/02/24 00:54:15;;;;;;;1.17;1.12;;;;;;;11.65;50.50;99639.91;4479110;31;31882;-83
2023/02/24 00:56:45;;;;;;;1.30;1.23;;;;;;;11.40;51.16;99625.28;4471804;31;32981;-83
2023/02/24 00:59:17;;;;;;;1.95;1.85;;;;;;;11.46;50.86;99627.59;4463502;31;33228;-83
2023/02/24 01:01:45;;;;;;;5.15;2.00;;;;;;;11.54;50.80;99628.09;4470065;31;33847;-83
2023/02/24 01:04:14;;;;;;;4.95;2.10;;;;;;;11.33;51.52;99617.72;4470115;31;33760;-83
2023/02/24 01:06:58;;;;;;;10.30;3.25;;;;;;;11.72;50.04;99610.41;4461742;31;32488;-83
2023/02/24 01:09:29;;;;;;;0.65;0.45;;;;;;;11.69;50.22;99612.37;4462223;31;32923;-84
2023/02/24 01:14:46;;;;;;;0.47;0.47;;;;;;;11.33;51.38;99610.63;4482673;31;33151;-85
2023/02/24 01:17:15;;;;;;;0.80;0.80;;;;;;;11.44;51.40;99604.81;4486574;31;33246;-83
2023/02/24 01:19:44;;;;;;;1.00;0.95;;;;;;;10.90;52.45;99610.09;4482603;31;34529;-83
2023/02/24 01:22:13;;;;;;;2.75;1.02;;;;;;;11.06;51.53;99598.78;4484201;31;33575;-83
2023/02/24 01:24:43;;;;;;;1.80;1.10;;;;;;;11.00;52.26;99590.22;4473630;31;34407;-83
2023/02/24 01:27:12;;;;;;;1.50;1.40;;;;;;;11.27;51.42;99582.72;4485332;31;33296;-83
2023/02/24 01:29:39;;;;;;;1.55;1.45;;;;;;;11.24;51.57;99580.22;4459084;31;32807;-83
2023/02/24 01:32:13;;;;;;;0.32;0.32;;;;;;;11.21;51.83;99577.75;4470962;31;34479;-83
2023/02/24 01:34:41;;;;;;;3.90;2.35;;;;;;;11.19;51.72;99570.81;4475058;31;34784;-83
2023/02/24 01:37:09;;;;;;;2.50;1.37;;;;;;;11.44;51.07;99563.38;4466975;31;32468;-83
2023/02/24 01:39:37;;;;;;;2.72;2.47;;;;;;;11.55;50.78;99565.47;4474257;31;32440;-82
2023/02/24 01:42:05;;;;;;;2.62;1.92;;;;;;;11.58;50.61;99560.00;4470060;31;33796;-82
2023/02/24 01:44:33;;;;;;;3.85;2.08;;;;;;;11.60;50.88;99552.03;4484350;31;33749;-82
2023/02/24 01:47:00;;;;;;;1.87;1.77;;;;;;;11.32;51.19;99557.88;4482460;31;33087;-82
2023/02/24 01:49:35;;;;;;;1.67;1.45;;;;;;;11.17;51.73;99549.78;4462110;31;33175;-83
2023/02/24 01:52:07;;;;;;;1.10;1.10;;;;;;;11.34;51.56;99553.34;4458543;31;32879;-83
2023/02/24 01:54:41;;;;;;;1.13;1.13;;;;;;;11.34;51.77;99550.69;4472369;31;33569;-83
2023/02/24 01:57:15;;;;;;;4.30;2.83;;;;;;;11.48;51.25;99542.91;4473357;31;32740;-82
2023/02/24 01:59:46;;;;;;;0.65;0.65;;;;;;;11.76;50.91;99537.03;4471635;31;33266;-81
2023/02/24 02:02:14;;;;;;;0.13;0.13;;;;;;;11.67;51.52;99542.81;4464564;31;32927;-82
2023/02/24 02:04:45;;;;;;;1.90;1.42;;;;;;;11.44;51.99;99534.31;4481685;31;33622;-82
2023/02/24 02:07:15;;;;;;;2.20;1.45;;;;;;;11.47;51.66;99530.63;4477326;31;33151;-82
2023/02/24 02:09:45;;;;;;;1.58;1.48;;;;;;;11.37;52.08;99532.91;4483139;31;34586;-82
2023/02/24 02:12:13;;;;;;;2.75;2.55;;;;;;;11.47;51.63;99526.19;4469270;31;33469;-82
2023/02/24 02:14:46;;;;;;;1.05;0.95;;;;;;;11.29;52.11;99524.50;4465595;31;33748;-81
2023/02/24 02:17:25;;;;;;;4.47;1.75;;;;;;;11.21;53.35;99524.91;4473202;31;32270;-81
2023/02/24 02:20:14;;;;;;;3.17;2.20;;;;;;;11.08;53.33;99525.59;4483346;31;33776;-82
2023/02/24 02:23:06;;;;;;;1.83;1.73;;;;;;;11.18;53.10;99521.56;4490014;31;33996;-82
2023/02/24 02:25:55;;;;;;;2.65;1.58;;;;;;;11.07;53.67;99519.47;4477344;31;32648;-82
2023/02/24 02:28:46;;;;;;;0.77;0.77;;;;;;;11.23;53.29;99515.09;4471890;31;32569;-82
2023/02/24 02:31:32;;;;;;;1.58;1.48;;;;;;;11.17;53.59;99511.91;4471921;31;34158;-81
2023/02/24 02:34:21;;;;;;;2.17;1.95;;;;;;;11.32;52.62;99505.00;4494810;31;33716;-81
2023/02/24 02:37:15;;;;;;;4.00;1.02;;;;;;;10.94;53.73;99513.06;4470221;31;32731;-81
2023/02/24 02:40:18;;;;;;;2.17;1.98;;;;;;;11.12;53.22;99511.31;4479061;31;33355;-81
2023/02/24 02:42:52;;;;;;;3.53;1.95;;;;;;;11.31;52.09;99512.06;4484473;31;33119;-81
2023/02/24 02:45:24;;;;;;;1.40;1.30;;;;;;;11.05;52.41;99508.09;4485334;31;33966;-81
2023/02/24 02:47:58;;;;;;;0.52;0.50;;;;;;;11.22;52.43;99502.81;4469389;31;33498;-82
2023/02/24 02:50:37;;;;;;;1.00;1.00;;;;;;;11.40;51.90;99503.69;4486866;31;33398;-81
2023/02/24 02:53:14;;;;;;;1.70;1.27;;;;;;;11.37;51.70;99498.53;4474108;31;34464;-81
2023/02/24 02:55:44;;;;;;;0.68;0.68;;;;;;;11.36;51.98;99491.53;4485243;31;33729;-81
2023/02/24 02:58:15;;;;;;;0.52;0.52;;;;;;;11.11;52.47;99489.31;4485769;31;33261;-81
2023/02/24 03:01:00;;;;;;;6.57;1.42;;;;;;;11.16;52.55;99483.78;4467351;31;33449;-81
2023/02/24 03:03:31;;;;;;;2.20;2.03;;;;;;;11.54;51.41;99484.44;4472256;31;34015;-83
2023/02/24 03:06:05;;;;;;;0.13;0.13;;;;;;;11.18;52.13;99481.91;4459413;31;33202;-83
2023/02/24 03:08:36;;;;;;;1.17;0.28;;;;;;;11.49;51.16;99487.34;4472062;31;32403;-83
2023/02/24 03:11:09;;;;;;;5.10;1.80;;;;;;;11.17;52.19;99481.06;4472326;31;33095;-83
2023/02/24 03:13:40;;;;;;;1.15;0.98;;;;;;;11.22;52.05;99483.47;4479114;31;33520;-83
2023/02/24 03:16:09;;;;;;;7.03;2.90;;;;;;;11.15;52.29;99479.41;4478554;31;33186;-83
2023/02/24 03:18:40;;;;;;;1.08;1.08;;;;;;;11.10;52.45;99484.09;4472176;31;34321;-83
2023/02/24 03:21:12;;;;;;;2.15;1.95;;;;;;;10.90;53.60;99496.50;4471410;31;34119;-83
2023/02/24 03:23:44;;;;;;;1.25;1.23;;;;;;;11.21;52.65;99476.47;4465954;31;32726;-83
2023/02/24 03:26:19;;;;;;;0.73;0.73;;;;;;;10.97;52.86;99468.88;4478709;31;33946;-83
2023/02/24 03:28:58;;;;;;;0.47;0.45;;;;;;;11.18;52.01;99466.06;4481548;31;33484;-82
2023/02/24 03:31:49;;;;;;;1.37;0.55;;;;;;;10.86;52.21;99472.97;4472123;31;32901;-82
2023/02/24 03:34:22;;;;;;;0.47;0.47;;;;;;;10.84;52.53;99470.41;4485443;31;34049;-82
2023/02/24 03:36:53;;;;;;;0.30;0.30;;;;;;;10.88;52.61;99473.75;4471828;31;33899;-82
2023/02/24 03:39:22;;;;;;;1.10;1.10;;;;;;;10.88;52.85;99476.41;4472836;31;33745;-83
2023/02/24 03:42:00;;;;;;;1.05;1.05;;;;;;;11.17;52.13;99467.84;4478699;31;32224;-83
2023/02/24 03:44:28;;;;;;;1.40;0.82;;;;;;;11.25;51.76;99468.31;4466306;32;33134;-83
2023/02/24 03:46:56;;;;;;;2.40;2.20;;;;;;;11.15;52.24;99466.19;4485448;31;33366;-82
2023/02/24 03:49:24;;;;;;;3.12;1.17;;;;;;;11.03;53.11;99467.69;4461404;31;33562;-83
2023/02/24 03:52:31;;;;;;;0.45;0.35;;;;;;;10.98;53.07;99470.56;4463171;31;32742;-84
2023/02/24 03:55:23;;;;;;;6.25;1.62;;;;;;;11.00;53.27;99462.56;4468095;31;32375;-84
2023/02/24 03:58:11;;;;;;;;;;;;;;;11.23;52.39;99461.38;4471019;31;32890;-83
2023/02/24 04:00:56;;;;;;;0.37;0.17;;;;;;;11.47;50.84;99457.47;4483306;31;33336;-83
2023/02/24 04:03:31;;;;;;;1.00;0.82;;;;;;;11.25;51.29;99462.16;4469610;31;31477;-83
2023/02/24 04:06:26;;;;;;;0.55;0.55;;;;;;;11.21;51.92;99444.78;4474653;31;33460;-84
2023/02/24 04:09:24;;;;;;;0.35;0.35;;;;;;;11.31;51.86;99440.72;4482324;31;34747;-84
2023/02/24 04:12:08;;;;;;;0.08;0.08;;;;;;;11.11;51.99;99425.00;4478805;31;32877;-84
2023/02/24 04:15:10;;;;;;;0.62;0.62;;;;;;;10.75;54.08;99428.63;4471274;31;31503;-84
2023/02/24 04:17:45;;;;;;;0.95;0.95;;;;;;;10.76;53.93;99432.97;4483894;31;33324;-83
2023/02/24 04:20:15;;;;;;;1.33;1.23;;;;;;;10.78;53.96;99425.84;4470585;31;32746;-83
2023/02/24 04:22:48;;;;;;;1.30;1.23;;;;;;;10.72;53.86;99420.84;4472733;31;33668;-83
2023/02/24 04:25:18;;;;;;;0.88;0.88;;;;;;;10.79;53.97;99414.34;4461257;31;32674;-83
2023/02/24 04:27:46;;;;;;;0.70;0.70;;;;;;;10.84;53.54;99399.09;4477628;31;33099;-83
2023/02/24 04:30:14;;;;;;;3.40;1.95;;;;;;;10.77;53.60;99398.53;4486188;31;34740;-84
2023/02/24 04:32:43;;;;;;;5.87;1.45;;;;;;;10.75;53.44;99399.56;4472126;31;34817;-84
2023/02/24 04:35:14;;;;;;;0.80;0.80;;;;;;;10.67;53.63;99396.44;4484756;31;33740;-84
2023/02/24 04:37:45;;;;;;;0.20;0.20;;;;;;;10.60;53.47;99395.91;4458141;31;33967;-83
2023/02/24 04:40:20;;;;;;;0.40;0.35;;;;;;;10.66;53.51;99384.19;4471905;31;34360;-82
2023/02/24 04:42:50;;;;;;;1.42;1.25;;;;;;;11.01;52.55;99385.88;4469640;31;33553;-83
2023/02/24 04:45:26;;;;;;;5.90;1.00;;;;;;;10.93;52.70;99390.72;4487097;31;32199;-82
2023/02/24 04:47:59;;;;;;;0.50;0.50;;;;;;;11.19;52.12;99380.56;4467279;31;33242;-84
2023/02/24 04:50:34;;;;;;;1.05;1.02;;;;;;;11.03;52.37;99384.00;4463033;31;32984;-83
2023/02/24 04:53:08;;;;;;;0.93;0.85;;;;;;;10.74;53.23;99376.75;4472106;31;33702;-83
2023/02/24 04:55:39;;;;;;;0.77;0.77;;;;;;;10.92;53.01;99370.50;4472666;31;32049;-83
2023/02/24 04:58:11;;;;;;;1.50;1.40;;;;;;;11.12;52.45;99371.25;4471992;31;33324;-83
2023/02/24 05:00:40;;;;;;;1.27;1.17;;;;;;;10.77;53.20;99366.00;4473252;31;35210;-84
2023/02/24 05:03:10;;;;;;;1.87;1.67;;;;;;;10.94;53.09;99368.63;4474072;31;34119;-84
2023/02/24 05:05:38;;;;;;;0.52;0.52;;;;;;;11.15;52.36;99366.63;4484763;31;33284;-84
2023/02/24 05:08:08;;;;;;;1.08;1.00;;;;;;;11.16;52.13;99368.37;4486819;31;33736;-84
2023/02/24 05:10:42;;;;;;;2.20;0.98;;;;;;;10.81;53.34;99364.06;4481439;31;33585;-84
2023/02/24 05:13:26;;;;;;;1.37;1.27;;;;;;;10.93;53.11;99359.00;4485651;31;33755;-84
2023/02/24 05:15:55;;;;;;;1.62;0.70;;;;;;;10.68;54.13;99366.47;4467227;31;32553;-83
2023/02/24 05:18:24;;;;;;;1.75;1.65;;;;;;;10.65;54.38;99366.66;4472769;31;34065;-82
2023/02/24 05:23:45;;;;;;;1.10;1.10;;;;;;;10.83;53.81;99349.88;4490385;31;34202;-82
2023/02/24 05:26:18;;;;;;;0.65;0.65;;;;;;;10.77;54.14;99361.56;4470915;31;34009;-82
2023/02/24 05:28:48;;;;;;;0.17;0.17;;;;;;;10.72;54.32;99354.81;4466353;31;32643;-82
2023/02/24 05:31:18;;;;;;;0.85;0.82;;;;;;;10.88;53.85;99352.25;4489788;31;33855;-82
2023/02/24 05:33:48;;;;;;;1.00;1.00;;;;;;;10.83;53.95;99359.56;4479308;31;33819;-81
2023/02/24 05:36:17;;;;;;;1.77;1.65;;;;;;;10.59;54.62;99361.69;4472084;31;31066;-82
2023/02/24 05:38:46;;;;;;;1.75;0.85;;;;;;;10.46;55.34;99367.56;4471170;31;34557;-82
2023/02/24 05:41:18;;;;;;;2.72;2.33;;;;;;;10.60;55.04;99364.25;4484931;31;34022;-82
2023/02/24 05:43:53;;;;;;;0.52;0.52;;;;;;;10.52;55.17;99359.34;4471398;31;33846;-82
2023/02/24 05:46:26;;;;;;;2.05;0.98;;;;;;;10.47;55.33;99358.72;4486479;31;32708;-84
2023/02/24 05:48:55;;;;;;;1.15;1.10;;;;;;;10.40;55.72;99354.69;4471704;31;34512;-84
2023/02/24 05:51:34;;;;;;;1.42;1.33;;;;;;;10.43;56.28;99357.16;4471599;31;34279;-84
2023/02/24 05:54:03;;;;;;;0.73;0.73;;;;;;;10.52;56.03;99354.06;4470183;31;34011;-84
2023/02/24 05:56:36;;;;;;;1.83;1.35;;;;;;;10.58;55.93;99354.66;4474970;31;33103;-83
2023/02/24 05:59:05;;;;;;;;;;;;;;;10.69;55.72;99347.06;4461461;31;32553;-82
2023/02/24 06:01:44;;;;;;;1.50;1.37;;;;;;;10.75;55.62;99344.13;4473234;31;33856;-83
2023/02/24 06:04:26;;;;;;;4.60;1.75;;;;;;;10.81;55.59;99340.28;4465360;31;32516;-83
2023/02/24 06:06:54;;;;;;;1.08;0.62;;;;;;;10.81;55.32;99341.16;4474854;31;32262;-83
2023/02/24 06:09:22;;;;;;;1.60;1.50;;;;;;;11.05;54.52;99348.72;4486612;31;34352;-82
2023/02/24 06:11:49;;;;;;;1.42;1.40;;;;;;;11.18;53.98;99344.50;4476131;31;33881;-81
2023/02/24 06:14:17;;;;;;;5.65;2.62;;;;;;;11.32;53.63;99349.91;4474094;31;33335;-81
2023/02/24 06:16:45;;;;;;;2.45;2.25;;;;;;;11.20;53.89;99354.06;4476845;31;33519;-82
2023/02/24 06:19:13;;;;;;;1.33;1.23;;;;;;;11.02;54.39;99358.53;4466957;31;31283;-82
2023/02/24 06:21:43;;;;;;;7.30;2.92;;;;;;;10.96;54.92;99360.63;4478463;31;32828;-82
2023/02/24 06:24:17;;;;;;;1.65;1.58;;;;;;;10.87;55.29;99355.81;4473417;31;33837;-82
2023/02/24 06:26:45;;;;;;;2.83;2.60;;;;;;;10.64;55.96;99359.66;4473827;31;33828;-82
2023/02/24 06:29:14;;;;;;;2.22;2.08;;;;;;;10.54;56.45;99354.00;4471046;31;34514;-82
2023/02/24 06:31:42;;;;;;;3.35;2.95;;;;;;;10.91;55.47;99350.28;4486780;31;33899;-83
2023/02/24 06:34:11;;;;;;;3.30;3.03;;;;;;;11.00;55.26;99352.44;4465566;31;34623;-82
2023/02/24 06:36:39;;;;;;;1.25;1.20;;;;;;;11.00;55.27;99357.75;4477348;31;33112;-81
2023/02/24 06:39:07;;;;;;;1.65;1.55;;;;;;;11.07;54.91;99349.50;4474439;31;31004;-82
2023/02/24 06:41:36;;;;;;;17.52;11.98;;;;;;;10.73;56.03;99346.84;4473425;31;33986;-82
2023/02/24 06:44:05;;;;;;;17.85;2.80;;;;;;;10.50;57.36;99337.44;4472501;31;33621;-81
2023/02/24 06:46:32;;;;;;;1.80;0.70;;;;;;;10.87;56.31;99339.97;4461759;31;33364;-81
2023/02/24 06:49:00;;;;;;;0.47;0.47;;;;;;;10.99;55.62;99348.13;4475198;31;33168;-81
2023/02/24 06:51:29;;;;;;;3.95;1.77;;;;;;;11.21;54.83;99349.62;4483294;31;34003;-81
2023/02/24 06:53:58;;;;;;;2.60;1.70;;;;;;;11.00;55.29;99335.75;4468603;31;32357;-81
2023/02/24 06:56:26;;;;;;;1.17;1.08;;;;;;;10.88;56.06;99339.91;4461677;31;33279;-81
2023/02/24 06:58:55;;;;;;;1.05;0.90;;;;;;;10.90;56.02;99330.09;4464002;31;34049;-81
2023/02/24 07:01:25;;;;;;;5.10;2.42;;;;;;;11.02;55.68;99326.81;4472041;31;33345;-81
2023/02/24 07:06:33;;;;;;;0.47;0.47;;;;;;;11.10;55.85;99333.47;4487203;31;32414;-81
2023/02/24 07:09:05;;;;;;;1.60;1.50;;;;;;;10.91;56.45;99330.94;4474164;31;33890;-81
2023/02/24 07:11:34;;;;;;;2.12;2.00;;;;;;;11.06;56.01;99326.66;4490500;31;32923;-81
2023/02/24 07:14:04;;;;;;;3.15;2.85;;;;;;;11.01;56.08;99327.78;4470918;31;33843;-81
2023/02/24 07:16:34;;;;;;;1.37;1.37;;;;;;;11.27;55.58;99320.22;4471447;32;32698;-81
2023/02/24 07:19:09;;;;;;;1.20;0.75;;;;;;;10.95;56.31;99322.78;4466815;31;32296;-80
2023/02/24 07:21:42;;;;;;;0.88;0.88;;;;;;;10.69;57.16;99315.37;4477790;31;32836;-80
2023/02/24 07:24:19;;;;;;;5.00;2.90;;;;;;;11.11;56.51;99317.56;4485325;31;33195;-81
2023/02/24 07:26:50;;;;;;;1.75;0.80;;;;;;;10.75;57.34;99315.91;4482814;31;33347;-83
2023/02/24 07:29:18;;;;;;;0.98;0.85;;;;;;;11.32;55.64;99310.25;4476468;31;34288;-81
2023/02/24 07:31:47;;;;;;;1.40;1.30;;;;;;;10.95;56.71;99304.28;4487808;31;32690;-82
2023/02/24 07:34:22;;;;;;;4.10;3.22;;;;;;;10.95;57.44;99306.94;4470148;31;35075;-82
2023/02/24 07:36:54;;;;;;;1.52;1.42;;;;;;;10.95;57.08;99306.94;4483386;31;33297;-82
2023/02/24 07:39:23;;;;;;;3.20;2.97;;;;;;;11.19;57.02;99303.91;4484524;31;34628;-82
2023/02/24 07:41:53;;;;;;;0.82;0.82;;;;;;;11.07;56.90;99299.31;4472426;31;33498;-82
2023/02/24 07:44:25;;;;;;;12.63;3.33;;;;;;;11.21;56.94;99299.41;4462866;31;32026;-82
2023/02/24 07:46:53;;;;;;;2.20;2.10;;;;;;;11.38;56.47;99301.13;4474634;31;30962;-82
2023/02/24 07:49:26;;;;;;;2.35;2.25;;;;;;;11.98;55.25;99294.22;4474384;31;35687;-82
2023/02/24 07:52:06;;;;;;;2.30;1.92;;;;;;;11.89;54.92;99294.75;4461799;31;33778;-82
2023/02/24 07:54:38;;;;;;;1.65;1.55;;;;;;;11.65;55.63;99290.81;4471869;31;33846;-82
2023/02/24 07:57:12;;;;;;;3.40;2.53;;;;;;;11.46;56.15;99297.13;4461975;31;33279;-82
2023/02/24 07:59:44;;;;;;;2.40;1.87;;;;;;;11.67;55.46;99288.94;4458373;31;34110;-81
2023/02/24 08:02:12;;;;;;;0.85;0.85;;;;;;;11.68;54.84;99286.22;4472880;31;33557;-82
2023/02/24 08:04:48;;;;;;;2.17;1.90;;;;;;;10.91;56.11;99281.62;4460105;31;33869;-82
2023/02/24 08:07:22;;;;;;;2.70;2.50;;;;;;;11.44;55.49;99284.91;4473759;31;34286;-82
2023/02/24 08:10:12;;;;;;;1.65;1.55;;;;;;;11.57;55.17;99279.81;4470552;31;34462;-82
2023/02/24 08:12:41;;;;;;;1.95;1.73;;;;;;;11.94;54.41;99276.81;4471125;31;33254;-82
2023/02/24 08:15:15;;;;;;;3.87;2.85;;;;;;;11.73;55.06;99278.03;4461213;31;30527;-84
2023/02/24 08:17:46;;;;;;;2.78;1.50;;;;;;;11.88;54.36;99279.81;4471974;31;33019;-81
2023/02/24 08:22:45;;;;;;;5.00;2.65;;;;;;;11.41;55.40;99287.75;4484489;31;33219;-81
2023/02/24 08:25:17;;;;;;;3.83;1.70;;;;;;;11.78;54.87;99276.81;4469819;31;31929;-81
2023/02/24 08:27:56;;;;;;;1.80;1.70;;;;;;;11.89;54.69;99272.75;4471363;31;34096;-82
2023/02/24 08:30:38;;;;;;;1.52;1.42;;;;;;;11.79;55.08;99269.72;4463508;31;34043;-81
2023/02/24 08:33:08;;;;;;;1.83;1.73;;;;;;;11.65;55.49;99265.22;4471596;31;33805;-81
2023/02/24 08:35:38;;;;;;;2.85;2.00;;;;;;;11.86;54.83;99257.88;4474966;31;33848;-81
2023/02/24 08:38:13;;;;;;;2.20;1.00;;;;;;;11.83;55.12;99260.72;4472274;31;32579;-81
2023/02/24 08:40:50;;;;;;;4.62;2.97;;;;;;;12.37;54.08;99241.69;4464009;31;32176;-81
2023/02/24 08:46:02;;;;;;;3.42;1.02;;;;;;;12.37;53.70;99242.53;4486640;31;34168;-81
2023/02/24 08:48:36;;;;;;;2.75;2.55;;;;;;;12.18;54.09;99237.47;4478260;31;33984;-81
2023/02/24 08:51:20;;;;;;;2.17;1.80;;;;;;;11.97;55.07;99246.69;4483747;31;33184;-81
2023/02/24 08:53:53;;;;;;;2.30;2.17;;;;;;;12.22;55.03;99238.16;4470831;31;34768;-81
2023/02/24 08:56:26;;;;;;;5.28;3.65;;;;;;;12.86;52.88;99242.19;4471781;31;32811;-82
2023/02/24 08:59:04;;;;;;;1.23;1.12;;;;;;;12.65;54.43;99235.56;4463380;31;32352;-82
2023/02/24 09:01:36;;;;;;;3.35;2.47;;;;;;;12.42;54.64;99235.16;4468407;31;32527;-81
2023/02/24 09:04:08;;;;;;;4.35;2.00;;;;;;;13.04;53.70;99226.94;4488758;31;34869;-82
2023/02/24 09:06:39;;;;;;;2.20;2.08;;;;;;;13.20;53.33;99232.16;4465129;31;31990;-82
2023/02/24 09:09:21;;;;;;;1.80;1.70;;;;;;;13.23;53.46;99227.50;4488661;31;33399;-82
2023/02/24 09:11:58;;;;;;;3.53;3.22;;;;;;;13.17;53.05;99227.03;4484930;31;34646;-82
2023/02/24 09:14:41;;;;;;;1.90;1.75;;;;;;;13.01;53.09;99220.06;4501181;31;32642;-83
2023/02/24 09:17:13;;;;;;;15.95;2.37;;;;;;;13.62;52.10;99217.09;4465049;31;32859;-82
2023/02/24 09:22:31;;;;;;;4.80;3.05;;;;;;;13.83;51.40;99199.75;4473045;31;33097;-81
2023/02/24 09:25:17;;;;;;;2.33;1.95;;;;;;;13.84;51.36;99197.00;4466203;31;32797;-81
2023/02/24 09:28:08;;;;;;;4.95;4.45;;;;;;;13.87;51.14;99189.81;4463504;31;33246;-81
2023/02/24 09:30:49;;;;;;;3.17;2.10;;;;;;;14.11;51.08;99184.63;4471311;31;32325;-82
2023/02/24 09:33:37;;;;;;;1.35;1.35;;;;;;;14.08;50.76;99188.34;4491873;31;33536;-81
2023/02/24 09:36:19;;;;;;;4.62;3.47;;;;;;;14.02;51.17;99184.31;4474056;31;34008;-82
2023/02/24 09:44:32;;;;;;;;;;;;;;;14.33;51.13;99190.16;4485295;31;34540;-82
2023/02/24 09:47:07;;;;;;;7.70;2.85;;;;;;;14.00;51.83;99183.53;4484064;31;33797;-82
2023/02/24 09:49:57;;;;;;;1.35;1.33;;;;;;;13.48;52.80;99184.38;4484860;31;34412;-81
2023/02/24 09:52:41;;;;;;;3.90;2.25;;;;;;;13.77;53.09;99184.25;4465905;31;34276;-82
2023/02/24 09:55:44;;;;;;;1.25;1.25;;;;;;;14.33;51.14;99172.41;4476988;31;34197;-81
2023/02/24 10:01:19;;;;;;;5.40;4.57;;;;;;;14.88;50.29;99177.53;4483546;31;33260;-81
2023/02/24 10:04:21;;;;;;;2.35;1.98;;;;;;;14.44;50.93;99179.66;4487724;31;31734;-82
2023/02/24 10:06:54;;;;;;;6.43;2.58;;;;;;;13.94;52.83;99170.69;4481925;31;33815;-82
2023/02/24 10:09:26;;;;;;;2.30;2.20;;;;;;;13.91;52.72;99160.31;4471646;31;34368;-82
2023/02/24 10:12:03;;;;;;;3.03;2.83;;;;;;;14.34;51.56;99162.66;4497684;31;34244;-82
2023/02/24 10:15:17;;;;;;;4.50;2.60;;;;;;;14.55;51.42;99155.03;4488234;31;33300;-81
2023/02/24 10:17:54;;;;;;;1.62;1.52;;;;;;;14.91;50.18;99156.03;4484104;31;33382;-82
2023/02/24 10:20:38;;;;;;;3.22;2.92;;;;;;;14.92;50.04;99142.63;4488667;31;33381;-82
2023/02/24 10:23:32;;;;;;;5.93;2.90;;;;;;;15.10;50.15;99140.47;4472596;31;32639;-83
2023/02/24 10:26:30;;;;;;;2.03;1.85;;;;;;;14.95;50.50;99128.25;4464981;31;31889;-82
2023/02/24 10:29:01;;;;;;;7.00;2.67;;;;;;;14.44;49.76;99131.84;4476526;31;32716;-80
2023/02/24 10:31:36;;;;;;;6.28;4.53;;;;;;;15.17;50.25;99123.09;4471912;31;32571;-80
2023/02/24 10:34:08;;;;;;;5.60;3.78;;;;;;;14.88;50.49;99121.72;4477074;31;33358;-81
2023/02/24 10:36:36;;;;;;;;;;;;;;;15.49;48.94;99110.06;4474538;31;33729;-80
2023/02/24 10:39:19;;;;;;;2.50;2.12;;;;;;;15.49;49.44;99110.06;4478647;31;33453;-80
2023/02/24 10:41:55;;;;;;;4.12;2.97;;;;;;;15.45;49.87;99105.09;4467994;31;34336;-80
2023/02/24 10:44:34;;;;;;;2.87;2.37;;;;;;;15.59;48.28;99105.75;4484742;31;34614;-81
2023/02/24 10:47:12;;;;;;;5.62;3.65;;;;;;;15.67;48.38;99101.72;4470546;31;33238;-80
2023/02/24 10:49:55;;;;;;;3.40;2.53;;;;;;;16.11;48.33;99085.81;4474543;31;33269;-81
2023/02/24 10:58:36;;;;;;;3.60;3.15;;;;;;;16.59;47.01;99061.59;4485310;31;33707;-81
2023/02/24 11:01:12;;;;;;;5.90;4.97;;;;;;;17.09;45.95;99059.34;4485901;31;33214;-80
2023/02/24 11:04:00;;;;;;;2.95;2.70;;;;;;;17.10;45.54;99052.19;4484025;31;33609;-80
2023/02/24 11:17:58;;;;;;;6.68;4.28;;;;;;;17.26;44.66;99035.75;4475204;31;33103;-81
2023/02/24 11:20:34;;;;;;;4.37;3.50;;;;;;;16.75;45.64;99023.91;4482457;31;34234;-80
2023/02/24 11:23:19;;;;;;;5.22;4.78;;;;;;;17.33;45.09;99020.94;4473637;31;33933;-81
2023/02/24 11:25:49;;;;;;;7.78;3.65;;;;;;;17.48;44.46;99016.97;4471858;31;33824;-80
2023/02/24 11:28:39;;;;;;;7.07;3.90;;;;;;;17.17;45.30;99020.50;4487118;31;33167;-81
2023/02/24 11:31:29;;;;;;;6.37;3.30;;;;;;;17.48;43.80;99008.97;4485473;31;32973;-80
2023/02/24 11:33:59;;;;;;;1.80;1.70;;;;;;;17.53;43.98;99006.75;4485244;31;34670;-81
2023/02/24 11:36:53;;;;;;;4.18;3.53;;;;;;;17.53;44.04;99001.41;4484991;31;34682;-80
2023/02/24 11:39:24;;;;;;;5.50;3.20;;;;;;;17.03;45.78;98998.47;4471078;31;34627;-81
2023/02/24 11:41:55;;;;;;;3.97;3.47;;;;;;;17.16;46.00;98995.66;4482005;31;33385;-80
2023/02/24 11:44:33;;;;;;;8.32;3.47;;;;;;;17.47;44.28;98991.25;4475289;31;32233;-80
2023/02/24 11:47:08;;;;;;;5.90;4.40;;;;;;;17.73;43.86;98991.72;4479037;31;34680;-80
2023/02/24 11:49:49;;;;;;;5.82;4.15;;;;;;;17.78;43.84;98978.81;4466387;31;32925;-81
2023/02/24 11:52:37;;;;;;;3.95;3.62;;;;;;;17.54;43.78;98981.75;4486312;31;33719;-80
2023/02/24 11:55:14;;;;;;;7.03;5.55;;;;;;;18.42;42.93;98966.97;4483641;31;34250;-80
2023/02/24 11:57:45;;;;;;;8.32;3.33;;;;;;;18.17;42.57;98966.47;4478335;31;33670;-81
2023/02/24 12:00:23;;;;;;;3.23;2.90;;;;;;;18.07;43.66;98965.59;4484218;31;32690;-81
2023/02/24 12:03:05;;;;;;;4.32;3.92;;;;;;;18.63;42.67;98956.19;4472134;31;32263;-80
2023/02/24 12:05:37;;;;;;;7.75;3.70;;;;;;;18.35;42.64;98952.47;4471521;31;34448;-80
2023/02/24 12:08:08;;;;;;;;;;;;;;;18.14;43.19;98952.56;4478074;31;34781;-81
2023/02/24 12:10:49;;;;;;;6.07;1.85;;;;;;;18.22;42.35;98939.34;4471363;31;32847;-80
2023/02/24 12:13:29;;;;;;;4.07;3.47;;;;;;;18.16;42.46;98940.72;4484921;31;33693;-80
2023/02/24 12:16:03;;;;;;;8.25;4.47;;;;;;;17.56;43.18;98947.75;4473037;31;32597;-80
2023/02/24 12:18:39;;;;;;;11.75;4.93;;;;;;;17.86;43.03;98938.09;4471027;31;33900;-80
2023/02/24 12:21:12;;;;;;;6.95;3.40;;;;;;;18.27;42.75;98930.91;4485399;31;33833;-81
2023/02/24 12:23:43;;;;;;;10.90;4.47;;;;;;;18.52;41.84;98917.06;4473152;31;34285;-81
2023/02/24 12:26:31;;;;;;;7.47;5.12;;;;;;;18.07;41.75;98919.34;4463310;31;32999;-80
2023/02/24 12:29:11;;;;;;;68.15;20.58;;;;;;;18.00;42.15;98913.69;4481694;31;34074;-80
2023/02/24 12:32:05;;;;;;;8.30;3.90;;;;;;;18.11;42.57;98915.41;4484600;31;33809;-80
2023/02/24 12:34:51;;;;;;;4.87;3.17;;;;;;;18.14;41.85;98909.81;4472085;31;34207;-80
2023/02/24 12:37:26;;;;;;;5.60;4.72;;;;;;;18.20;41.47;98913.75;4484781;31;33503;-80
2023/02/24 12:40:10;;;;;;;7.87;3.58;;;;;;;18.47;41.24;98905.94;4477411;31;33441;-80
2023/02/24 12:42:47;;;;;;;3.78;2.58;;;;;;;18.06;42.06;98907.81;4476102;31;31507;-80
2023/02/24 12:45:29;;;;;;;19.85;4.40;;;;;;;17.90;42.52;98905.66;4473132;31;33754;-80
2023/02/24 12:48:32;;;;;;;3.12;2.78;;;;;;;18.05;42.61;98895.44;4485398;31;33542;-80
2023/02/24 12:51:21;;;;;;;3.25;2.40;;;;;;;17.91;41.80;98895.81;4486559;31;33945;-80
2023/02/24 12:53:58;;;;;;;5.62;3.45;;;;;;;17.64;42.03;98894.53;4493256;31;33846;-80